createdAt,value
2023-04-15T00:00:27.102Z,99426.13
2023-04-15T00:03:30.005Z,99424.59
2023-04-15T00:06:32.534Z,99430.84
2023-04-15T00:09:34.774Z,99431.41
2023-04-15T00:12:37.126Z,99437.41
2023-04-15T00:15:39.519Z,99441.31
2023-04-15T00:18:42.267Z,99434.00
2023-04-15T00:21:44.489Z,99443.16
2023-04-15T00:24:47.044Z,99441.59
2023-04-15T00:27:49.734Z,99439.78
2023-04-15T00:30:52.053Z,99439.25
2023-04-15T00:33:54.408Z,99434.25
2023-04-15T00:36:57.701Z,99425.63
2023-04-15T00:39:59.924Z,99427.72
2023-04-15T00:43:02.520Z,99428.72
2023-04-15T00:46:06.107Z,99433.69
2023-04-15T00:49:08.509Z,99433.94
2023-04-15T00:52:10.784Z,99425.59
2023-04-15T00:55:13.097Z,99408.13
2023-04-15T00:58:16.112Z,99429.28
2023-04-15T01:01:22.571Z,99417.50
2023-04-15T01:04:25.476Z,99427.66
2023-04-15T01:07:27.957Z,99411.50
2023-04-15T01:10:31.847Z,99417.22
2023-04-15T01:13:34.710Z,99410.94
2023-04-15T01:16:39.901Z,99414.59
2023-04-15T01:19:42.406Z,99413.53
2023-04-15T01:22:45.472Z,99418.50
2023-04-15T01:25:49.403Z,99411.47
2023-04-15T01:28:51.779Z,99407.56
2023-04-15T01:31:56.075Z,99407.00
2023-04-15T01:35:01.740Z,99413.28
2023-04-15T01:38:06.446Z,99427.34
2023-04-15T01:41:08.819Z,99415.88
2023-04-15T01:44:11.163Z,99419.72
2023-04-15T01:47:15.556Z,99412.47
2023-04-15T01:50:18.016Z,99428.34
2023-04-15T01:53:20.780Z,99418.69
2023-04-15T01:56:24.536Z,99423.09
2023-04-15T01:59:27.444Z,99427.03
2023-04-15T02:02:31.070Z,99432.50
2023-04-15T02:05:33.871Z,99434.34
2023-04-15T02:08:36.115Z,99425.22
2023-04-15T02:11:39.254Z,99427.53
2023-04-15T02:14:41.595Z,99432.22
2023-04-15T02:17:46.135Z,99418.94
2023-04-15T02:20:52.695Z,99427.31
2023-04-15T02:23:54.982Z,99425.97
2023-04-15T02:26:57.410Z,99424.09
2023-04-15T02:29:59.741Z,99424.09
2023-04-15T02:33:02.293Z,99435.56
2023-04-15T02:36:05.124Z,99422.00
2023-04-15T02:39:07.432Z,99426.16
2023-04-15T02:42:09.932Z,99431.44
2023-04-15T02:45:13.012Z,99442.31
2023-04-15T02:48:18.987Z,99440.94
2023-04-15T02:51:26.014Z,99435.81
2023-04-15T02:54:32.660Z,99431.34
2023-04-15T02:57:37.303Z,99436.31
2023-04-15T03:00:42.024Z,99435.22
2023-04-15T03:03:44.495Z,99433.72
2023-04-15T03:06:46.910Z,99425.13
2023-04-15T03:09:49.321Z,99431.88
2023-04-15T03:12:51.736Z,99431.09
2023-04-15T03:15:56.891Z,99427.44
2023-04-15T03:18:59.476Z,99422.69
2023-04-15T03:22:01.955Z,99418.00
2023-04-15T03:25:04.623Z,99418.25
2023-04-15T03:28:08.584Z,99422.94
2023-04-15T03:31:11.040Z,99421.38
2023-04-15T03:34:13.327Z,99425.56
2023-04-15T03:37:16.162Z,99424.78
2023-04-15T03:40:18.553Z,99439.69
2023-04-15T03:43:21.340Z,99439.16
2023-04-15T03:46:23.765Z,99439.69
2023-04-15T03:49:26.071Z,99436.53
2023-04-15T03:52:28.339Z,99435.22
2023-04-15T03:55:30.635Z,99427.38
2023-04-15T03:58:32.941Z,99425.56
2023-04-15T04:01:35.210Z,99434.72
2023-04-15T04:04:37.649Z,99421.66
2023-04-15T04:07:39.952Z,99417.66
2023-04-15T04:10:42.843Z,99420.28
2023-04-15T04:13:45.090Z,99424.19
2023-04-15T04:16:47.396Z,99419.16
2023-04-15T04:19:49.712Z,99422.34
2023-04-15T04:22:52.038Z,99418.94
2023-04-15T04:25:54.338Z,99426.78
2023-04-15T04:28:56.572Z,99427.38
2023-04-15T04:31:58.913Z,99418.88
2023-04-15T04:35:01.167Z,99423.59
2023-04-15T04:38:04.412Z,99423.16
2023-04-15T04:41:06.721Z,99422.31
2023-04-15T04:44:08.964Z,99415.19
2023-04-15T04:47:11.557Z,99416.88
2023-04-15T04:50:13.932Z,99417.66
2023-04-15T04:53:16.398Z,99416.03
2023-04-15T04:56:18.657Z,99420.41
2023-04-15T04:59:20.896Z,99425.53
2023-04-15T05:02:23.364Z,99426.34
2023-04-15T05:05:25.775Z,99425.63
2023-04-15T05:08:28.044Z,99428.88
2023-04-15T05:11:30.258Z,99426.91
2023-04-15T05:14:33.382Z,99435.75
2023-04-15T05:17:35.689Z,99417.41
2023-04-15T05:20:38.344Z,99426.28
2023-04-15T05:23:41.080Z,99415.78
2023-04-15T05:26:43.356Z,99414.03
2023-04-15T05:29:45.899Z,99422.59
2023-04-15T05:32:48.452Z,99426.56
2023-04-15T05:35:50.724Z,99424.22
2023-04-15T05:38:53.006Z,99414.63
2023-04-15T05:41:55.293Z,99425.88
2023-04-15T05:44:57.562Z,99424.69
2023-04-15T05:47:59.871Z,99421.16
2023-04-15T05:51:02.171Z,99435.56
2023-04-15T05:54:04.471Z,99446.66
2023-04-15T05:57:07.985Z,99436.72
2023-04-15T06:00:10.890Z,99429.72
2023-04-15T06:03:13.498Z,99444.72
2023-04-15T06:06:15.920Z,99443.94
2023-04-15T06:09:18.228Z,99441.22
2023-04-15T06:12:20.796Z,99449.78
2023-04-15T06:15:23.134Z,99460.00
2023-04-15T06:18:25.993Z,99456.69
2023-04-15T06:21:28.447Z,99464.50
2023-04-15T06:24:31.561Z,99469.38
2023-04-15T06:27:35.016Z,99471.44
2023-04-15T06:30:38.550Z,99473.38
2023-04-15T06:33:40.872Z,99475.63
2023-04-15T06:36:43.721Z,99475.47
2023-04-15T06:39:46.016Z,99474.03
2023-04-15T06:42:48.372Z,99465.75
2023-04-15T06:45:51.778Z,99478.94
2023-04-15T06:48:54.094Z,99477.47
2023-04-15T06:51:57.718Z,99490.03
2023-04-15T06:55:03.202Z,99491.88
2023-04-15T06:58:05.930Z,99490.16
2023-04-15T07:01:08.314Z,99490.19
2023-04-15T07:04:11.295Z,99478.84
2023-04-15T07:07:13.592Z,99488.25
2023-04-15T07:10:16.096Z,99484.66
2023-04-15T07:13:18.418Z,99486.09
2023-04-15T07:16:21.252Z,99480.00
2023-04-15T07:19:23.601Z,99491.97
2023-04-15T07:22:26.358Z,99480.47
2023-04-15T07:25:28.633Z,99493.41
2023-04-15T07:28:31.822Z,99496.19
2023-04-15T07:31:34.180Z,99484.84
2023-04-15T07:34:37.589Z,99479.34
2023-04-15T07:37:39.895Z,99498.19
2023-04-15T07:40:42.504Z,99494.44
2023-04-15T07:43:45.363Z,99500.34
2023-04-15T07:46:47.953Z,99492.56
2023-04-15T07:49:51.571Z,99497.09
2023-04-15T07:52:53.922Z,99504.63
2023-04-15T07:55:56.180Z,99500.72
2023-04-15T07:58:58.452Z,99499.53
2023-04-15T08:02:00.896Z,99495.63
2023-04-15T08:05:04.446Z,99497.97
2023-04-15T08:08:07.123Z,99499.38
2023-04-15T08:11:09.449Z,99511.00
2023-04-15T08:14:11.742Z,99497.06
2023-04-15T08:17:14.047Z,99488.56
2023-04-15T08:20:16.473Z,99503.16
2023-04-15T08:23:19.516Z,99498.69
2023-04-15T08:26:21.796Z,99484.50
2023-04-15T08:29:24.632Z,99507.09
2023-04-15T08:32:27.314Z,99506.66
2023-04-15T08:35:29.666Z,99517.38
2023-04-15T08:38:42.388Z,99512.50
2023-04-15T08:41:52.297Z,99520.78
2023-04-15T08:44:56.886Z,99510.88
2023-04-15T08:48:01.123Z,99514.09
2023-04-15T08:51:03.774Z,99514.78
2023-04-15T08:54:07.147Z,99508.50
2023-04-15T08:57:09.452Z,99517.22
2023-04-15T09:00:14.234Z,99517.69
2023-04-15T09:03:17.831Z,99518.94
2023-04-15T09:06:21.696Z,99516.09
2023-04-15T09:09:24.076Z,99523.50
2023-04-15T09:12:26.696Z,99517.03
2023-04-15T09:15:30.421Z,99519.94
2023-04-15T09:18:35.691Z,99521.06
2023-04-15T09:21:38.058Z,99517.56
2023-04-15T09:24:42.327Z,99518.56
2023-04-15T09:27:49.391Z,99515.47
2023-04-15T09:31:02.771Z,99524.81
2023-04-15T09:34:05.901Z,99519.94
2023-04-15T09:37:10.942Z,99514.38
2023-04-15T09:40:14.026Z,99508.63
2023-04-15T09:43:17.457Z,99515.59
2023-04-15T09:46:20.206Z,99513.94
2023-04-15T09:49:23.354Z,99511.78
2023-04-15T09:52:27.430Z,99513.31
2023-04-15T09:55:33.503Z,99516.56
2023-04-15T09:58:38.714Z,99499.34
2023-04-15T10:01:42.689Z,99511.75
2023-04-15T10:04:49.704Z,99520.09
2023-04-15T10:07:52.048Z,99525.56
2023-04-15T10:10:54.923Z,99524.78
2023-04-15T10:13:57.696Z,99530.56
2023-04-15T10:17:03.350Z,99530.41
2023-04-15T10:20:07.286Z,99527.31
2023-04-15T10:23:11.517Z,99531.03
2023-04-15T10:26:16.244Z,99529.00
2023-04-15T10:29:18.702Z,99531.22
2023-04-15T10:32:22.440Z,99537.44
2023-04-15T10:35:24.872Z,99529.16
2023-04-15T10:38:43.946Z,99521.25
2023-04-15T10:41:46.264Z,99530.19
2023-04-15T10:44:56.610Z,99543.63
2023-04-15T10:48:03.328Z,99535.25
2023-04-15T10:51:06.079Z,99542.56
2023-04-15T10:54:32.831Z,99538.97
2023-04-15T10:57:38.430Z,99537.13
2023-04-15T11:00:40.706Z,99553.91
2023-04-15T11:03:43.994Z,99549.53
2023-04-15T11:06:46.721Z,99560.75
2023-04-15T11:09:49.071Z,99549.56
2023-04-15T11:12:59.603Z,99554.69
2023-04-15T11:16:03.601Z,99562.28
2023-04-15T11:19:06.094Z,99557.78
2023-04-15T11:22:12.646Z,99575.50
2023-04-15T11:25:29.581Z,99576.59
2023-04-15T11:28:32.945Z,99566.19
2023-04-15T11:31:35.319Z,99575.56
2023-04-15T11:34:37.647Z,99573.31
2023-04-15T11:37:40.127Z,99558.72
2023-04-15T11:40:46.186Z,99565.28
2023-04-15T11:43:50.535Z,99566.22
2023-04-15T11:46:52.955Z,99562.16
2023-04-15T11:49:55.313Z,99578.34
2023-04-15T11:52:59.563Z,99579.09
2023-04-15T11:56:02.015Z,99555.16
2023-04-15T11:59:04.420Z,99573.63
2023-04-15T12:02:14.465Z,99573.03
2023-04-15T12:05:17.028Z,99576.63
2023-04-15T12:08:19.406Z,99583.16
2023-04-15T12:11:31.037Z,99581.75
2023-04-15T12:14:34.162Z,99561.84
2023-04-15T12:17:50.801Z,99588.03
2023-04-15T12:20:54.745Z,99575.06
2023-04-15T12:23:58.296Z,99568.69
2023-04-15T12:27:08.531Z,99575.38
2023-04-15T12:30:13.828Z,99585.19
2023-04-15T12:33:20.576Z,99587.72
2023-04-15T12:36:23.693Z,99588.28
2023-04-15T12:39:30.514Z,99573.91
2023-04-15T12:42:33.163Z,99587.66
2023-04-15T12:45:35.485Z,99585.78
2023-04-15T12:48:37.801Z,99589.75
2023-04-15T12:51:40.207Z,99586.69
2023-04-15T12:54:45.074Z,99593.56
2023-04-15T12:57:47.328Z,99588.44
2023-04-15T13:00:50.143Z,99597.72
2023-04-15T13:03:53.004Z,99609.91
2023-04-15T13:06:56.246Z,99596.44
2023-04-15T13:09:58.487Z,99604.41
2023-04-15T13:13:00.753Z,99604.28
2023-04-15T13:16:03.294Z,99607.88
2023-04-15T13:19:05.638Z,99588.28
2023-04-15T13:22:08.914Z,99604.44
2023-04-15T13:25:14.121Z,99610.66
2023-04-15T13:28:16.417Z,99604.13
2023-04-15T13:31:18.722Z,99606.84
2023-04-15T13:34:21.070Z,99616.19
2023-04-15T13:37:31.659Z,99614.88
2023-04-15T13:40:33.955Z,99612.97
2023-04-15T13:43:36.737Z,99613.31
2023-04-15T13:46:40.584Z,99617.00
2023-04-15T13:49:42.889Z,99615.91
2023-04-15T13:52:45.197Z,99623.03
2023-04-15T13:55:47.484Z,99619.75
2023-04-15T13:58:49.941Z,99623.88
2023-04-15T14:01:53.145Z,99624.09
2023-04-15T14:04:55.494Z,99632.63
2023-04-15T14:07:59.189Z,99625.44
2023-04-15T14:11:01.487Z,99642.50
2023-04-15T14:14:03.920Z,99642.13
2023-04-15T14:17:10.219Z,99634.72
2023-04-15T14:20:13.945Z,99618.66
2023-04-15T14:23:17.338Z,99638.22
2023-04-15T14:26:20.025Z,99651.13
2023-04-15T14:29:22.370Z,99648.59
2023-04-15T14:32:26.399Z,99640.66
2023-04-15T14:35:28.867Z,99656.31
2023-04-15T14:38:31.553Z,99650.81
2023-04-15T14:41:34.356Z,99657.44
2023-04-15T14:44:36.664Z,99652.41
2023-04-15T14:47:39.114Z,99664.38
2023-04-15T14:50:41.466Z,99660.69
2023-04-15T14:53:44.050Z,99659.81
2023-04-15T14:56:46.349Z,99659.75
2023-04-15T14:59:48.610Z,99667.78
2023-04-15T15:02:51.060Z,99645.47
2023-04-15T15:05:53.561Z,99660.72
2023-04-15T15:08:56.008Z,99656.69
2023-04-15T15:11:58.364Z,99668.91
2023-04-15T15:15:09.169Z,99667.22
2023-04-15T15:18:19.615Z,99671.44
2023-04-15T15:21:22.108Z,99681.66
2023-04-15T15:24:24.352Z,99683.31
2023-04-15T15:27:26.683Z,99680.56
2023-04-15T15:30:29.101Z,99691.63
2023-04-15T15:33:32.041Z,99690.88
2023-04-15T15:36:34.293Z,99694.78
2023-04-15T15:39:36.745Z,99700.91
2023-04-15T15:42:39.022Z,99707.06
2023-04-15T15:45:41.524Z,99695.69
2023-04-15T15:48:44.173Z,99713.81
2023-04-15T15:51:46.849Z,99719.78
2023-04-15T15:54:49.222Z,99716.88
2023-04-15T15:57:51.784Z,99726.16
2023-04-15T16:00:54.107Z,99715.88
2023-04-15T16:03:56.570Z,99718.47
2023-04-15T16:06:59.001Z,99730.88
2023-04-15T16:10:01.289Z,99738.13
2023-04-15T16:13:03.640Z,99738.66
2023-04-15T16:16:06.211Z,99734.75
2023-04-15T16:19:08.614Z,99738.72
2023-04-15T16:22:11.224Z,99735.41
2023-04-15T16:25:13.559Z,99745.03
2023-04-15T16:28:25.603Z,99752.03
2023-04-15T16:31:29.003Z,99755.09
2023-04-15T16:34:31.250Z,99759.78
2023-04-15T16:37:34.581Z,99760.56
2023-04-15T16:40:37.608Z,99754.19
2023-04-15T16:43:39.967Z,99752.66
2023-04-15T16:46:42.299Z,99765.72
2023-04-15T16:49:44.523Z,99754.59
2023-04-15T16:52:46.807Z,99773.81
2023-04-15T16:55:49.094Z,99766.09
2023-04-15T16:58:51.339Z,99778.41
2023-04-15T17:01:56.765Z,99780.75
2023-04-15T17:04:59.148Z,99786.03
2023-04-15T17:08:01.499Z,99794.03
2023-04-15T17:11:03.947Z,99793.34
2023-04-15T17:14:09.092Z,99799.69
2023-04-15T17:17:11.413Z,99788.47
2023-04-15T17:20:14.155Z,99804.97
2023-04-15T17:23:16.497Z,99810.31
2023-04-15T17:26:19.323Z,99817.28
2023-04-15T17:29:23.538Z,99824.41
2023-04-15T17:32:31.745Z,99815.44
2023-04-15T17:35:34.270Z,99826.88
2023-04-15T17:38:36.540Z,99824.25
2023-04-15T17:41:38.785Z,99820.44
2023-04-15T17:44:41.246Z,99831.84
2023-04-15T17:47:43.633Z,99838.28
2023-04-15T17:50:46.174Z,99853.22
2023-04-15T17:53:48.865Z,99844.47
2023-04-15T17:56:51.720Z,99855.25
2023-04-15T17:59:54.122Z,99856.78
2023-04-15T18:02:56.579Z,99856.00
2023-04-15T18:06:00.716Z,99860.91
2023-04-15T18:09:04.111Z,99868.28
2023-04-15T18:12:07.792Z,99873.44
2023-04-15T18:15:10.884Z,99881.44
2023-04-15T18:18:13.132Z,99884.00
2023-04-15T18:21:15.392Z,99886.38
2023-04-15T18:24:17.976Z,99887.84
2023-04-15T18:27:20.626Z,99894.31
2023-04-15T18:30:23.696Z,99900.94
2023-04-15T18:33:25.992Z,99898.47
2023-04-15T18:36:28.251Z,99907.78
2023-04-15T18:39:31.046Z,99914.34
2023-04-15T18:42:33.317Z,99928.56
2023-04-15T18:45:36.278Z,99917.31
2023-04-15T18:48:38.607Z,99918.97
2023-04-15T18:51:41.688Z,99935.72
2023-04-15T18:54:43.928Z,99937.66
2023-04-15T18:57:46.715Z,99941.75
2023-04-15T19:00:50.854Z,99940.50
2023-04-15T19:03:53.170Z,99944.31
2023-04-15T19:06:55.445Z,99949.09
2023-04-15T19:09:57.947Z,99948.59
2023-04-15T19:13:00.526Z,99957.72
2023-04-15T19:16:03.318Z,99957.00
2023-04-15T19:19:06.813Z,99965.69
2023-04-15T19:22:09.824Z,99981.06
2023-04-15T19:25:12.152Z,99983.50
2023-04-15T19:28:16.423Z,99987.44
2023-04-15T19:31:18.818Z,99985.34
2023-04-15T19:34:21.373Z,99981.38
2023-04-15T19:37:25.832Z,99982.84
2023-04-15T19:40:28.098Z,99990.94
2023-04-15T19:43:32.769Z,99993.84
2023-04-15T19:46:35.112Z,99992.25
2023-04-15T19:49:38.033Z,99994.63
2023-04-15T19:52:40.316Z,99994.88
2023-04-15T19:55:42.618Z,100003.03
2023-04-15T19:58:46.978Z,100010.59
2023-04-15T20:01:49.287Z,100004.31
2023-04-15T20:04:51.770Z,100008.03
2023-04-15T20:07:54.053Z,100007.03
2023-04-15T20:10:57.186Z,100013.06
2023-04-15T20:13:59.518Z,100027.00
2023-04-15T20:17:02.334Z,100025.91
2023-04-15T20:20:06.554Z,100020.41
2023-04-15T20:23:08.811Z,100025.16
2023-04-15T20:26:11.146Z,100022.78
2023-04-15T20:29:14.116Z,100024.09
2023-04-15T20:32:17.874Z,100024.91
2023-04-15T20:35:20.626Z,100033.03
2023-04-15T20:38:22.903Z,100018.13
2023-04-15T20:41:25.568Z,100024.09
2023-04-15T20:44:27.843Z,100030.09
2023-04-15T20:47:30.319Z,100024.66
2023-04-15T20:50:32.686Z,100031.69
2023-04-15T20:53:35.073Z,100036.16
2023-04-15T20:56:37.343Z,100038.50
2023-04-15T20:59:39.585Z,100045.34
2023-04-15T21:02:41.951Z,100051.59
2023-04-15T21:05:44.302Z,100052.13
2023-04-15T21:08:46.585Z,100057.66
2023-04-15T21:14:54.762Z,100066.84
2023-04-15T21:17:57.086Z,100063.44
2023-04-15T21:21:00.986Z,100059.81
2023-04-15T21:24:03.252Z,100066.88
2023-04-15T21:27:06.790Z,100075.06
2023-04-15T21:30:09.489Z,100075.84
2023-04-15T21:33:11.854Z,100077.69
2023-04-15T21:36:14.113Z,100081.38
2023-04-15T21:39:17.175Z,100087.69
2023-04-15T21:42:19.513Z,100094.03
2023-04-15T21:45:21.835Z,100094.81
2023-04-15T21:48:24.174Z,100097.97
2023-04-15T21:51:29.632Z,100095.34
2023-04-15T21:54:32.982Z,100090.34
2023-04-15T21:57:35.230Z,100104.50
2023-04-15T22:00:39.139Z,100094.28
2023-04-15T22:03:42.795Z,100096.91
2023-04-15T22:06:45.249Z,100096.13
2023-04-15T22:09:47.579Z,100089.56
2023-04-15T22:12:49.916Z,100110.03
2023-04-15T22:15:52.145Z,100114.22
2023-04-15T22:18:55.329Z,100117.09
2023-04-15T22:21:58.867Z,100111.06
2023-04-15T22:25:01.153Z,100125.75
2023-04-15T22:28:06.959Z,100124.69
2023-04-15T22:31:09.345Z,100113.41
2023-04-15T22:34:11.734Z,100119.97
2023-04-15T22:37:14.157Z,100122.06
2023-04-15T22:40:16.588Z,100123.13
2023-04-15T22:43:18.829Z,100124.94
2023-04-15T22:46:27.061Z,100119.44
2023-04-15T22:49:29.482Z,100126.53
2023-04-15T22:52:31.818Z,100122.81
2023-04-15T22:55:34.123Z,100131.50
2023-04-15T22:58:36.359Z,100124.41
2023-04-15T23:01:38.668Z,100125.47
2023-04-15T23:04:41.116Z,100119.97
2023-04-15T23:07:43.540Z,100136.22
2023-04-15T23:10:46.576Z,100132.78
2023-04-15T23:13:50.613Z,100127.81
2023-04-15T23:16:52.964Z,100122.56
2023-04-15T23:19:55.205Z,100138.81
2023-04-15T23:22:57.555Z,100130.97
2023-04-15T23:26:01.314Z,100134.09
2023-04-15T23:29:03.778Z,100134.38
2023-04-15T23:32:06.652Z,100127.28
2023-04-15T23:35:09.512Z,100132.28
2023-04-15T23:38:11.856Z,100138.53
2023-04-15T23:41:14.181Z,100138.81
2023-04-15T23:44:16.480Z,100136.22
2023-04-15T23:47:18.825Z,100148.28
2023-04-15T23:50:21.157Z,100154.28
2023-04-15T23:53:23.463Z,100146.69
2023-04-15T23:56:25.778Z,100149.03
2023-04-15T23:59:28.061Z,100149.28
